Time;durP1;ratioP1;P1;durP2;ratioP2;P2;SDS_P1;SDS_P2;PMS_P1;PMS_P2;Temp;Humidity;BMP_temperature;BMP_pressure;BME280_temperature;BME280_humidity;BME280_pressure;Samples;Min_cycle;Max_cycle;Signal;HPM_P1;HPM_P2
2022/01/25 00:10:02;;;;;;;96.22;42.53;;;-1.10;99.90;;;;;;6185600;23;20388;-90
2022/01/25 00:25:20;;;;;;;103.22;44.00;;;-0.70;99.90;;;;;;6185772;23;20024;-87
2022/01/25 00:28:21;;;;;;;98.60;42.80;;;-0.60;99.90;;;;;;6180514;23;20075;-87
2022/01/25 00:31:24;;;;;;;106.13;44.08;;;-0.60;99.90;;;;;;6183449;23;20055;-88
2022/01/25 00:34:11;;;;;;;94.93;44.97;;;-0.60;99.90;;;;;;6184524;23;20029;-88
2022/01/25 00:36:58;;;;;;;89.78;41.83;;;-0.60;99.90;;;;;;6182454;23;20332;-88
2022/01/25 00:39:48;;;;;;;89.55;42.65;;;-0.60;99.90;;;;;;6184062;23;20029;-89
2022/01/25 00:42:35;;;;;;;88.07;41.78;;;-0.60;99.90;;;;;;6183655;23;20029;-87
2022/01/25 00:45:28;;;;;;;85.97;40.55;;;-0.60;99.90;;;;;;6180989;23;20033;-87
2022/01/25 00:48:30;;;;;;;88.95;42.30;;;-0.50;99.90;;;;;;6181102;23;20730;-88
2022/01/25 00:54:40;;;;;;;87.15;41.20;;;-0.50;99.90;;;;;;6183321;23;20043;-89
2022/01/25 00:57:28;;;;;;;83.57;40.17;;;-0.50;99.90;;;;;;6185273;23;20036;-90
2022/01/25 01:00:18;;;;;;;83.40;41.42;;;-0.60;99.90;;;;;;6181477;23;20403;-88
2022/01/25 01:03:09;;;;;;;80.50;40.35;;;-0.60;99.90;;;;;;6182098;23;20025;-88
2022/01/25 01:05:59;;;;;;;76.97;37.00;;;-0.70;99.90;;;;;;6181586;23;20021;-89
2022/01/25 01:08:56;;;;;;;79.28;38.78;;;-0.70;99.90;;;;;;6182860;23;20412;-90
2022/01/25 01:12:04;;;;;;;79.88;38.85;;;-0.80;99.90;;;;;;6184935;23;20025;-88
2022/01/25 01:48:58;;;;;;;72.95;34.88;;;-2.00;99.90;;;;;;6186509;23;20024;-90
2022/01/25 01:51:49;;;;;;;78.47;35.42;;;-2.00;99.90;;;;;;6183862;23;20025;-87
2022/01/25 01:54:36;;;;;;;82.43;38.97;;;-2.20;99.90;;;;;;6162358;23;20021;-88
2022/01/25 01:57:24;;;;;;;77.80;37.20;;;-2.20;99.90;;;;;;6182589;23;20033;-87
2022/01/25 02:00:13;;;;;;;85.05;40.38;;;-2.20;99.90;;;;;;6183885;23;20025;-87
2022/01/25 02:03:04;;;;;;;93.03;40.33;;;-2.30;99.90;;;;;;6183062;23;20025;-88
2022/01/25 02:05:52;;;;;;;94.85;40.25;;;-2.30;99.90;;;;;;6181966;23;20040;-88
2022/01/25 02:08:39;;;;;;;93.63;40.53;;;-2.40;99.90;;;;;;6182432;23;20372;-87
2022/01/25 02:11:27;;;;;;;95.22;41.03;;;-2.40;99.90;;;;;;6182489;23;20024;-87
2022/01/25 02:14:16;;;;;;;104.22;42.22;;;-2.50;99.90;;;;;;6182097;23;20025;-87
2022/01/25 02:17:38;;;;;;;100.63;41.85;;;-2.50;99.90;;;;;;6181611;23;20021;-88
2022/01/25 02:23:30;;;;;;;89.20;40.88;;;-2.50;99.90;;;;;;6186375;23;20044;-88
2022/01/25 02:26:17;;;;;;;94.55;41.40;;;-2.60;99.90;;;;;;6183065;23;20048;-86
2022/01/25 02:29:04;;;;;;;86.63;40.65;;;-2.60;99.90;;;;;;6184124;23;20025;-86
2022/01/25 02:31:54;;;;;;;98.28;41.20;;;-2.60;99.90;;;;;;6181671;23;20032;-87
2022/01/25 02:34:41;;;;;;;95.68;41.63;;;-2.60;99.90;;;;;;6182607;23;20021;-87
2022/01/25 02:37:31;;;;;;;102.35;42.45;;;-2.60;99.90;;;;;;6182603;23;20615;-86
2022/01/25 02:40:18;;;;;;;103.50;43.38;;;-2.60;99.90;;;;;;6182495;23;20128;-88
2022/01/25 02:43:06;;;;;;;103.75;41.50;;;-2.60;99.90;;;;;;6185336;23;20040;-86
2022/01/25 02:49:04;;;;;;;100.63;42.47;;;-2.70;99.90;;;;;;6182786;23;20025;-88
2022/01/25 02:51:52;;;;;;;108.35;42.92;;;-2.70;99.90;;;;;;6181804;23;20029;-88
2022/01/25 02:54:41;;;;;;;101.05;42.85;;;-2.80;99.90;;;;;;6170094;23;20087;-87
2022/01/25 02:57:28;;;;;;;102.47;42.22;;;-2.80;99.90;;;;;;6200096;23;20013;-88
2022/01/25 03:00:19;;;;;;;99.05;42.78;;;-2.80;99.90;;;;;;6196800;23;20025;-88
2022/01/25 03:03:06;;;;;;;102.75;41.65;;;-2.80;99.90;;;;;;6195694;23;20124;-89
2022/01/25 03:05:54;;;;;;;110.43;44.20;;;-2.80;99.90;;;;;;6195999;23;20025;-88
2022/01/25 03:08:41;;;;;;;98.70;41.08;;;-2.90;99.90;;;;;;6202461;23;20012;-84
2022/01/25 03:11:30;;;;;;;110.93;45.22;;;-2.90;99.90;;;;;;6208605;23;20009;-83
2022/01/25 03:14:19;;;;;;;100.43;42.35;;;-2.90;99.90;;;;;;6208450;23;20076;-83
2022/01/25 03:17:11;;;;;;;100.68;42.95;;;-2.90;99.90;;;;;;6206609;23;20025;-88
2022/01/25 03:20:06;;;;;;;105.18;42.42;;;-2.90;99.90;;;;;;6181698;23;20040;-87
2022/01/25 03:25:43;;;;;;;97.22;41.05;;;-3.00;99.90;;;;;;6204033;23;20024;-85
2022/01/25 03:28:30;;;;;;;95.22;41.47;;;-3.00;99.90;;;;;;6195396;23;20021;-85
2022/01/25 03:31:18;;;;;;;102.32;41.13;;;-3.00;99.90;;;;;;6186196;23;20036;-86
2022/01/25 03:34:08;;;;;;;94.93;40.72;;;-3.00;99.90;;;;;;6183348;23;20025;-87
2022/01/25 03:36:55;;;;;;;90.60;38.28;;;-3.00;99.90;;;;;;6183633;23;20087;-86
2022/01/25 03:39:43;;;;;;;90.05;41.38;;;-3.10;99.90;;;;;;6184505;23;20029;-87
2022/01/25 03:42:36;;;;;;;95.60;40.83;;;-3.10;99.90;;;;;;6189880;23;20029;-85
2022/01/25 03:45:30;;;;;;;89.47;36.30;;;-3.10;99.90;;;;;;6187726;23;20025;-87
2022/01/25 03:51:11;;;;;;;87.03;39.40;;;-3.20;99.90;;;;;;6183718;23;20021;-86
2022/01/25 03:53:58;;;;;;;84.05;37.70;;;-3.20;99.90;;;;;;6184318;23;20029;-87
2022/01/25 03:56:46;;;;;;;91.32;40.47;;;-3.20;99.90;;;;;;6180677;23;20025;-87
2022/01/25 03:59:33;;;;;;;89.32;39.83;;;-3.10;99.90;;;;;;6183666;23;20175;-87
2022/01/25 04:02:21;;;;;;;96.55;39.58;;;-3.20;99.90;;;;;;6182322;23;20040;-87
2022/01/25 04:05:19;;;;;;;85.32;38.45;;;-3.20;99.90;;;;;;6183648;23;20036;-87
2022/01/25 04:08:07;;;;;;;87.00;39.30;;;-3.10;99.90;;;;;;6184235;23;20033;-87
2022/01/25 04:10:54;;;;;;;89.15;40.75;;;-3.10;99.90;;;;;;6182242;23;20029;-87
2022/01/25 04:13:42;;;;;;;91.47;40.22;;;-3.10;99.90;;;;;;6181012;23;20203;-87
2022/01/25 04:16:55;;;;;;;88.03;39.45;;;-3.10;99.90;;;;;;6182704;23;20292;-87
2022/01/25 04:19:57;;;;;;;94.85;38.92;;;-3.10;99.90;;;;;;6181567;23;20052;-87
2022/01/25 04:25:58;;;;;;;102.40;43.42;;;-3.00;99.90;;;;;;6184402;23;20044;-87
2022/01/25 04:28:46;;;;;;;96.95;42.97;;;-3.00;99.90;;;;;;6183397;23;20025;-88
2022/01/25 04:31:37;;;;;;;101.22;44.25;;;-3.00;99.90;;;;;;6179706;23;20362;-87
2022/01/25 04:49:51;;;;;;;104.82;43.83;;;-3.00;99.90;;;;;;6184378;23;20025;-87
2022/01/25 04:52:57;;;;;;;107.43;42.42;;;-2.90;99.90;;;;;;6181915;23;20355;-87
2022/01/25 04:55:55;;;;;;;109.90;44.00;;;-2.80;99.90;;;;;;6182883;23;20116;-85
2022/01/25 04:58:55;;;;;;;110.40;44.55;;;-2.80;99.90;;;;;;6184438;23;20029;-88
2022/01/25 05:01:52;;;;;;;107.13;44.08;;;-2.70;99.90;;;;;;6183097;23;20052;-86
2022/01/25 05:04:46;;;;;;;111.50;45.30;;;-2.80;99.90;;;;;;6180834;23;20034;-87
2022/01/25 05:07:48;;;;;;;115.47;45.05;;;-2.80;99.90;;;;;;6181110;23;20040;-86
2022/01/25 05:10:48;;;;;;;105.47;43.67;;;-2.70;99.90;;;;;;6182619;23;20025;-87
2022/01/25 05:16:36;;;;;;;107.75;42.25;;;-2.70;99.90;;;;;;6183564;23;20020;-88
2022/01/25 05:25:09;;;;;;;98.93;41.72;;;-3.00;99.90;;;;;;6183939;23;20154;-87
2022/01/25 05:27:56;;;;;;;101.93;41.58;;;-3.10;99.90;;;;;;6183985;23;20095;-86
2022/01/25 05:30:47;;;;;;;100.95;41.80;;;-3.10;99.90;;;;;;6182425;23;20029;-87
2022/01/25 05:33:35;;;;;;;93.60;39.47;;;-3.10;99.90;;;;;;6183330;23;20392;-87
2022/01/25 05:36:24;;;;;;;97.00;39.47;;;-3.20;99.90;;;;;;6186840;23;20115;-88
2022/01/25 05:39:25;;;;;;;105.13;45.15;;;-3.20;99.90;;;;;;6185937;23;20044;-86
2022/01/25 05:45:37;;;;;;;107.53;42.85;;;-3.10;99.90;;;;;;6183602;23;20029;-86
2022/01/25 05:48:27;;;;;;;106.72;40.08;;;-3.10;99.90;;;;;;6182617;23;20097;-87
2022/01/25 05:51:14;;;;;;;107.28;42.22;;;-3.00;99.90;;;;;;6183044;23;20134;-86
2022/01/25 05:54:02;;;;;;;107.10;40.38;;;-3.00;99.90;;;;;;6185037;23;20032;-88
2022/01/25 05:56:49;;;;;;;106.22;41.83;;;-3.10;99.90;;;;;;6181377;23;20319;-85
2022/01/25 05:59:39;;;;;;;105.90;41.80;;;-3.00;99.90;;;;;;6185155;23;20080;-84
2022/01/25 06:03:07;;;;;;;107.43;42.58;;;-2.90;99.90;;;;;;6181039;23;20436;-89
2022/01/25 06:06:13;;;;;;;111.72;42.10;;;-2.90;99.90;;;;;;6184971;23;20083;-87
2022/01/25 06:13:54;;;;;;;111.35;40.17;;;-2.70;99.90;;;;;;6183928;23;20426;-88
2022/01/25 06:16:53;;;;;;;106.93;40.65;;;-2.70;99.90;;;;;;6184335;23;20025;-84
2022/01/25 06:19:53;;;;;;;109.28;40.35;;;-2.80;99.90;;;;;;6190878;23;20127;-86
2022/01/25 06:23:33;;;;;;;113.28;42.42;;;-2.70;99.90;;;;;;6192784;23;20083;-87
2022/01/25 06:26:36;;;;;;;109.13;40.83;;;-2.60;99.90;;;;;;6187263;23;20140;-87
2022/01/25 06:33:30;;;;;;;101.97;39.85;;;-2.60;99.90;;;;;;6193663;23;20008;-88
2022/01/25 06:36:19;;;;;;;103.40;41.35;;;-2.70;99.90;;;;;;6193618;23;20053;-88
2022/01/25 06:39:06;;;;;;;101.55;39.55;;;-2.80;99.90;;;;;;6197180;23;20044;-89
2022/01/25 06:42:01;;;;;;;95.57;39.65;;;-2.90;99.90;;;;;;6168718;23;20037;-87
2022/01/25 06:44:54;;;;;;;89.55;37.83;;;-2.90;99.90;;;;;;6186234;23;20297;-89
2022/01/25 06:47:43;;;;;;;63.17;27.05;;;-3.00;99.90;;;;;;6185119;23;20031;-88
2022/01/25 06:50:30;;;;;;;92.82;37.10;;;-3.10;99.90;;;;;;6180893;23;20052;-88
2022/01/25 06:53:43;;;;;;;84.43;36.03;;;-3.10;99.90;;;;;;6182046;23;20360;-87
2022/01/25 06:56:46;;;;;;;90.68;37.90;;;-3.10;99.90;;;;;;6183481;23;20232;-88
2022/01/25 06:59:33;;;;;;;89.50;36.85;;;-3.10;99.90;;;;;;6182021;23;20095;-86
2022/01/25 07:02:25;;;;;;;94.85;38.15;;;-3.10;99.90;;;;;;6180359;23;20021;-88
2022/01/25 07:05:13;;;;;;;90.38;37.20;;;-3.10;99.90;;;;;;6183233;23;20331;-87
2022/01/25 07:08:01;;;;;;;102.32;39.35;;;-3.20;99.90;;;;;;6160718;23;20120;-87
2022/01/25 07:10:48;;;;;;;89.78;38.15;;;-3.20;99.90;;;;;;6181670;23;20267;-87
2022/01/25 07:13:35;;;;;;;89.03;36.47;;;-3.20;99.90;;;;;;6183450;23;20024;-88
2022/01/25 07:16:24;;;;;;;87.30;36.67;;;-3.30;99.90;;;;;;6183780;23;20032;-86
2022/01/25 07:19:16;;;;;;;82.03;35.53;;;-3.30;99.90;;;;;;6181853;23;20036;-87
2022/01/25 07:22:06;;;;;;;84.03;35.58;;;-3.30;99.90;;;;;;6162594;23;20032;-86
2022/01/25 07:25:00;;;;;;;91.13;37.60;;;-3.30;99.90;;;;;;6184314;23;20053;-85
2022/01/25 07:27:50;;;;;;;88.05;38.10;;;-3.20;99.90;;;;;;6182251;23;20035;-87
2022/01/25 07:30:45;;;;;;;107.43;42.85;;;-3.10;99.90;;;;;;6161374;23;20309;-87
2022/01/25 07:33:39;;;;;;;97.95;40.35;;;-3.10;99.90;;;;;;6181654;23;20100;-86
2022/01/25 07:36:30;;;;;;;100.03;41.25;;;-3.00;99.90;;;;;;6181130;23;20121;-88
2022/01/25 07:39:36;;;;;;;102.68;41.10;;;-2.90;99.90;;;;;;6182796;23;20025;-86
2022/01/25 07:42:25;;;;;;;110.55;43.28;;;-2.60;99.90;;;;;;6183110;23;20033;-87
2022/01/25 07:45:18;;;;;;;111.03;45.58;;;-2.40;99.90;;;;;;6182978;23;20132;-88
2022/01/25 07:48:10;;;;;;;114.35;43.38;;;-2.20;99.90;;;;;;6181375;23;20025;-88
2022/01/25 07:50:58;;;;;;;105.18;44.78;;;-2.10;99.90;;;;;;6181811;23;20128;-86
2022/01/25 07:53:46;;;;;;;102.30;45.05;;;-2.10;99.90;;;;;;6182511;23;20108;-86
2022/01/25 07:56:33;;;;;;;108.10;45.25;;;-2.20;99.90;;;;;;6185342;23;20048;-84
2022/01/25 07:59:25;;;;;;;112.68;44.97;;;-2.10;99.90;;;;;;6184561;23;20104;-89
2022/01/25 08:02:23;;;;;;;115.55;44.00;;;-2.00;99.90;;;;;;6182672;23;20025;-88
2022/01/25 08:05:27;;;;;;;104.53;43.42;;;-1.80;99.90;;;;;;6185095;23;20025;-89
2022/01/25 08:08:28;;;;;;;108.93;42.05;;;-1.80;99.90;;;;;;6147731;23;20344;-88
2022/01/25 08:11:20;;;;;;;100.55;41.97;;;-1.80;99.90;;;;;;6182890;23;20035;-91
2022/01/25 08:14:17;;;;;;;102.50;44.80;;;-1.70;99.90;;;;;;6183325;23;20277;-90
2022/01/25 08:17:17;;;;;;;106.53;43.03;;;-1.60;99.90;;;;;;6183029;23;20028;-89
2022/01/25 08:20:12;;;;;;;98.05;42.30;;;-1.60;99.90;;;;;;6182042;23;20029;-90
2022/01/25 08:23:06;;;;;;;100.85;40.50;;;-1.50;99.90;;;;;;6181740;23;20029;-89
2022/01/25 08:25:56;;;;;;;94.63;38.55;;;-1.40;99.90;;;;;;6181487;23;20028;-88
2022/01/25 08:29:07;;;;;;;94.50;39.65;;;-1.30;99.90;;;;;;6183945;23;20050;-88
2022/01/25 08:32:10;;;;;;;90.95;38.38;;;-1.10;99.90;;;;;;6074396;23;20354;-89
2022/01/25 08:35:18;;;;;;;86.55;38.35;;;-0.80;99.90;;;;;;6053192;23;20097;-88
2022/01/25 08:38:31;;;;;;;90.75;40.10;;;-0.50;99.90;;;;;;6017812;23;20121;-89
2022/01/25 08:41:24;;;;;;;84.07;39.13;;;-0.30;99.90;;;;;;6012121;23;20024;-88
2022/01/25 08:44:20;;;;;;;80.82;36.60;;;-0.20;99.90;;;;;;6008290;23;20080;-88
2022/01/25 08:47:16;;;;;;;73.57;34.38;;;-0.10;99.90;;;;;;6008991;23;20031;-88
2022/01/25 08:50:17;;;;;;;76.78;35.58;;;0.10;99.90;;;;;;5950410;24;20392;-88
2022/01/25 08:53:14;;;;;;;67.68;32.05;;;0.30;99.90;;;;;;5952703;23;20028;-87
2022/01/25 08:56:16;;;;;;;58.03;29.30;;;0.40;99.90;;;;;;5977171;23;20039;-89
2022/01/25 09:03:08;;;;;;;48.03;24.70;;;1.00;99.90;;;;;;5924316;24;20017;-89
2022/01/25 09:06:00;;;;;;;53.25;27.17;;;1.30;99.90;;;;;;5924733;24;20033;-90
2022/01/25 09:08:50;;;;;;;47.08;24.92;;;1.40;99.90;;;;;;5923447;24;20469;-88
2022/01/25 09:11:48;;;;;;;53.00;24.83;;;1.40;99.90;;;;;;5924513;24;20025;-89
2022/01/25 09:14:36;;;;;;;43.67;23.80;;;1.40;99.90;;;;;;5965366;24;20032;-88
2022/01/25 09:17:23;;;;;;;44.40;24.10;;;1.50;99.90;;;;;;6032962;23;20030;-90
2022/01/25 09:20:17;;;;;;;44.88;24.88;;;1.80;99.90;;;;;;6099442;23;20043;-89
2022/01/25 09:23:04;;;;;;;43.45;23.90;;;2.00;99.90;;;;;;6181192;23;20321;-89
2022/01/25 09:25:55;;;;;;;40.65;23.00;;;2.40;99.90;;;;;;6180714;23;20104;-88
2022/01/25 09:28:44;;;;;;;36.78;20.65;;;2.80;99.90;;;;;;6183993;23;20029;-89
2022/01/25 09:31:31;;;;;;;37.83;20.52;;;3.10;99.90;;;;;;6184284;23;20025;-89
2022/01/25 09:34:20;;;;;;;32.78;19.55;;;3.60;99.90;;;;;;6182133;23;20029;-90
2022/01/25 09:37:11;;;;;;;33.67;19.27;;;4.30;99.90;;;;;;6181886;23;20060;-88
2022/01/25 09:39:59;;;;;;;32.22;19.02;;;5.00;99.90;;;;;;6182142;23;20056;-88
2022/01/25 09:42:52;;;;;;;30.90;19.15;;;5.70;99.90;;;;;;6183001;23;20397;-88
2022/01/25 09:45:43;;;;;;;28.63;17.65;;;6.50;99.90;;;;;;6185686;23;20025;-88
2022/01/25 09:48:30;;;;;;;27.13;17.20;;;7.20;98.10;;;;;;6182026;23;20316;-88
2022/01/25 09:51:19;;;;;;;27.00;17.73;;;7.70;94.90;;;;;;6185047;23;20360;-87
2022/01/25 09:54:07;;;;;;;24.95;16.55;;;8.20;91.20;;;;;;6182647;23;20041;-90
2022/01/25 09:56:57;;;;;;;34.47;17.60;;;9.00;86.40;;;;;;6182425;23;20036;-89
2022/01/25 09:59:46;;;;;;;25.67;17.45;;;9.20;80.70;;;;;;6182677;23;20103;-90
2022/01/25 10:02:43;;;;;;;24.65;15.88;;;9.60;79.70;;;;;;6184396;23;20122;-88
2022/01/25 10:05:36;;;;;;;22.33;14.98;;;10.00;75.70;;;;;;6185993;23;20031;-88
2022/01/25 10:08:33;;;;;;;23.55;15.15;;;9.70;74.30;;;;;;6163785;23;20040;-89
2022/01/25 10:11:23;;;;;;;20.73;13.70;;;9.50;75.70;;;;;;6184747;23;20059;-89
2022/01/25 10:14:10;;;;;;;21.55;14.23;;;9.60;73.10;;;;;;6185438;23;20124;-88
2022/01/25 10:16:58;;;;;;;19.98;13.13;;;9.30;73.80;;;;;;6182861;23;20021;-88
2022/01/25 10:19:47;;;;;;;18.73;13.23;;;9.80;72.40;;;;;;6194905;23;20423;-89
